sensor_id;sensor_type;location;lat;lon;timestamp;P1;durP1;ratioP1;P2;durP2;ratioP2
6547;SDS011;3307;52.416;16.862;2023-05-07T00:01:13;6.00;;;3.47;;
6547;SDS011;3307;52.416;16.862;2023-05-07T00:03:39;3.47;;;2.70;;
6547;SDS011;3307;52.416;16.862;2023-05-07T00:06:04;4.57;;;2.70;;
6547;SDS011;3307;52.416;16.862;2023-05-07T00:08:30;3.60;;;2.80;;
6547;SDS011;3307;52.416;16.862;2023-05-07T00:10:55;3.50;;;2.60;;
6547;SDS011;3307;52.416;16.862;2023-05-07T00:13:20;3.90;;;2.90;;
6547;SDS011;3307;52.416;16.862;2023-05-07T00:15:46;3.10;;;2.60;;
6547;SDS011;3307;52.416;16.862;2023-05-07T00:18:11;4.73;;;3.37;;
6547;SDS011;3307;52.416;16.862;2023-05-07T00:20:37;6.20;;;3.70;;
6547;SDS011;3307;52.416;16.862;2023-05-07T00:23:02;3.00;;;2.70;;
6547;SDS011;3307;52.416;16.862;2023-05-07T00:25:28;3.63;;;2.60;;
6547;SDS011;3307;52.416;16.862;2023-05-07T00:27:53;4.60;;;2.40;;
6547;SDS011;3307;52.416;16.862;2023-05-07T00:30:18;2.50;;;2.20;;
6547;SDS011;3307;52.416;16.862;2023-05-07T00:32:44;4.00;;;2.60;;
6547;SDS011;3307;52.416;16.862;2023-05-07T00:35:10;6.70;;;3.33;;
6547;SDS011;3307;52.416;16.862;2023-05-07T00:37:36;4.40;;;3.20;;
6547;SDS011;3307;52.416;16.862;2023-05-07T00:40:02;4.23;;;2.80;;
6547;SDS011;3307;52.416;16.862;2023-05-07T00:42:29;4.03;;;3.10;;
6547;SDS011;3307;52.416;16.862;2023-05-07T00:44:57;4.20;;;3.05;;
6547;SDS011;3307;52.416;16.862;2023-05-07T00:47:23;3.23;;;2.27;;
6547;SDS011;3307;52.416;16.862;2023-05-07T00:49:48;3.50;;;2.50;;
6547;SDS011;3307;52.416;16.862;2023-05-07T00:52:14;5.00;;;2.63;;
6547;SDS011;3307;52.416;16.862;2023-05-07T00:54:41;3.60;;;2.70;;
6547;SDS011;3307;52.416;16.862;2023-05-07T00:57:07;3.83;;;2.77;;
6547;SDS011;3307;52.416;16.862;2023-05-07T00:59:32;4.70;;;3.10;;
6547;SDS011;3307;52.416;16.862;2023-05-07T01:01:58;4.00;;;3.70;;
6547;SDS011;3307;52.416;16.862;2023-05-07T01:04:24;5.63;;;4.20;;
6547;SDS011;3307;52.416;16.862;2023-05-07T01:06:51;4.30;;;3.30;;
6547;SDS011;3307;52.416;16.862;2023-05-07T01:09:17;4.72;;;3.25;;
6547;SDS011;3307;52.416;16.862;2023-05-07T01:11:45;5.80;;;4.10;;
6547;SDS011;3307;52.416;16.862;2023-05-07T01:14:10;7.53;;;3.93;;
6547;SDS011;3307;52.416;16.862;2023-05-07T01:16:36;6.67;;;4.23;;
6547;SDS011;3307;52.416;16.862;2023-05-07T01:19:02;4.43;;;3.80;;
6547;SDS011;3307;52.416;16.862;2023-05-07T01:21:28;8.48;;;4.95;;
6547;SDS011;3307;52.416;16.862;2023-05-07T01:23:58;5.00;;;4.55;;
6547;SDS011;3307;52.416;16.862;2023-05-07T01:26:23;6.50;;;5.10;;
6547;SDS011;3307;52.416;16.862;2023-05-07T01:28:49;6.93;;;4.93;;
6547;SDS011;3307;52.416;16.862;2023-05-07T01:31:14;5.50;;;4.55;;
6547;SDS011;3307;52.416;16.862;2023-05-07T01:33:41;6.30;;;5.00;;
6547;SDS011;3307;52.416;16.862;2023-05-07T01:36:08;6.25;;;4.53;;
6547;SDS011;3307;52.416;16.862;2023-05-07T01:38:36;7.38;;;4.85;;
6547;SDS011;3307;52.416;16.862;2023-05-07T01:41:02;5.22;;;4.07;;
6547;SDS011;3307;52.416;16.862;2023-05-07T01:43:28;5.33;;;4.13;;
6547;SDS011;3307;52.416;16.862;2023-05-07T01:45:54;6.65;;;4.53;;
6547;SDS011;3307;52.416;16.862;2023-05-07T01:48:20;7.65;;;4.82;;
6547;SDS011;3307;52.416;16.862;2023-05-07T01:50:45;5.00;;;4.10;;
6547;SDS011;3307;52.416;16.862;2023-05-07T01:53:11;5.00;;;4.03;;
6547;SDS011;3307;52.416;16.862;2023-05-07T01:55:36;5.60;;;4.03;;
6547;SDS011;3307;52.416;16.862;2023-05-07T01:58:02;6.40;;;4.30;;
6547;SDS011;3307;52.416;16.862;2023-05-07T02:00:28;7.22;;;4.38;;
6547;SDS011;3307;52.416;16.862;2023-05-07T02:02:54;6.47;;;4.87;;
6547;SDS011;3307;52.416;16.862;2023-05-07T02:05:19;6.10;;;4.10;;
6547;SDS011;3307;52.416;16.862;2023-05-07T02:07:44;5.00;;;4.17;;
6547;SDS011;3307;52.416;16.862;2023-05-07T02:10:10;5.93;;;4.80;;
6547;SDS011;3307;52.416;16.862;2023-05-07T02:12:35;7.60;;;4.90;;
6547;SDS011;3307;52.416;16.862;2023-05-07T02:15:01;6.90;;;3.93;;
6547;SDS011;3307;52.416;16.862;2023-05-07T02:17:26;7.87;;;4.80;;
6547;SDS011;3307;52.416;16.862;2023-05-07T02:19:52;6.40;;;5.00;;
6547;SDS011;3307;52.416;16.862;2023-05-07T02:22:17;5.33;;;4.30;;
6547;SDS011;3307;52.416;16.862;2023-05-07T02:24:43;5.77;;;4.30;;
6547;SDS011;3307;52.416;16.862;2023-05-07T02:27:09;6.13;;;4.28;;
6547;SDS011;3307;52.416;16.862;2023-05-07T02:29:35;6.60;;;5.17;;
6547;SDS011;3307;52.416;16.862;2023-05-07T02:32:00;6.40;;;4.67;;
6547;SDS011;3307;52.416;16.862;2023-05-07T02:34:26;6.30;;;4.73;;
6547;SDS011;3307;52.416;16.862;2023-05-07T02:36:51;5.30;;;4.33;;
6547;SDS011;3307;52.416;16.862;2023-05-07T02:39:17;7.17;;;4.40;;
6547;SDS011;3307;52.416;16.862;2023-05-07T02:41:42;7.10;;;4.97;;
6547;SDS011;3307;52.416;16.862;2023-05-07T02:44:07;6.10;;;3.93;;
6547;SDS011;3307;52.416;16.862;2023-05-07T02:46:34;6.35;;;4.03;;
6547;SDS011;3307;52.416;16.862;2023-05-07T02:48:59;4.43;;;4.03;;
6547;SDS011;3307;52.416;16.862;2023-05-07T02:51:25;5.40;;;4.10;;
6547;SDS011;3307;52.416;16.862;2023-05-07T02:53:51;7.70;;;4.97;;
6547;SDS011;3307;52.416;16.862;2023-05-07T02:56:16;8.90;;;4.70;;
6547;SDS011;3307;52.416;16.862;2023-05-07T02:58:41;6.88;;;4.78;;
6547;SDS011;3307;52.416;16.862;2023-05-07T03:01:07;7.03;;;5.17;;
6547;SDS011;3307;52.416;16.862;2023-05-07T03:03:33;9.43;;;5.20;;
6547;SDS011;3307;52.416;16.862;2023-05-07T03:05:58;9.27;;;4.82;;
6547;SDS011;3307;52.416;16.862;2023-05-07T03:08:24;9.40;;;5.77;;
6547;SDS011;3307;52.416;16.862;2023-05-07T03:10:49;7.60;;;5.33;;
6547;SDS011;3307;52.416;16.862;2023-05-07T03:13:15;9.00;;;4.15;;
6547;SDS011;3307;52.416;16.862;2023-05-07T03:15:40;5.57;;;4.70;;
6547;SDS011;3307;52.416;16.862;2023-05-07T03:18:06;7.17;;;5.20;;
6547;SDS011;3307;52.416;16.862;2023-05-07T03:20:31;8.10;;;4.93;;
6547;SDS011;3307;52.416;16.862;2023-05-07T03:22:57;6.93;;;4.60;;
6547;SDS011;3307;52.416;16.862;2023-05-07T03:25:22;7.60;;;4.27;;
6547;SDS011;3307;52.416;16.862;2023-05-07T03:27:47;6.53;;;4.00;;
6547;SDS011;3307;52.416;16.862;2023-05-07T03:30:13;5.93;;;3.97;;
6547;SDS011;3307;52.416;16.862;2023-05-07T03:32:38;6.22;;;3.63;;
6547;SDS011;3307;52.416;16.862;2023-05-07T03:35:04;8.13;;;4.13;;
6547;SDS011;3307;52.416;16.862;2023-05-07T03:37:29;4.27;;;3.30;;
6547;SDS011;3307;52.416;16.862;2023-05-07T03:39:55;6.20;;;3.40;;
6547;SDS011;3307;52.416;16.862;2023-05-07T03:42:20;3.90;;;3.10;;
6547;SDS011;3307;52.416;16.862;2023-05-07T03:44:46;7.20;;;4.37;;
6547;SDS011;3307;52.416;16.862;2023-05-07T03:47:11;5.63;;;4.27;;
6547;SDS011;3307;52.416;16.862;2023-05-07T03:49:38;4.57;;;3.08;;
6547;SDS011;3307;52.416;16.862;2023-05-07T03:52:03;4.00;;;3.25;;
6547;SDS011;3307;52.416;16.862;2023-05-07T03:54:29;5.23;;;3.87;;
6547;SDS011;3307;52.416;16.862;2023-05-07T03:56:55;4.73;;;3.67;;
6547;SDS011;3307;52.416;16.862;2023-05-07T03:59:21;4.10;;;3.77;;
6547;SDS011;3307;52.416;16.862;2023-05-07T04:01:47;4.80;;;3.50;;
6547;SDS011;3307;52.416;16.862;2023-05-07T04:04:13;7.15;;;3.13;;
6547;SDS011;3307;52.416;16.862;2023-05-07T04:06:39;5.38;;;4.10;;
6547;SDS011;3307;52.416;16.862;2023-05-07T04:09:05;6.40;;;3.70;;
6547;SDS011;3307;52.416;16.862;2023-05-07T04:11:31;6.40;;;4.43;;
6547;SDS011;3307;52.416;16.862;2023-05-07T04:13:57;7.50;;;4.00;;
6547;SDS011;3307;52.416;16.862;2023-05-07T04:16:22;5.73;;;3.53;;
6547;SDS011;3307;52.416;16.862;2023-05-07T04:18:47;5.57;;;4.40;;
6547;SDS011;3307;52.416;16.862;2023-05-07T04:21:13;3.80;;;3.07;;
6547;SDS011;3307;52.416;16.862;2023-05-07T04:23:40;6.57;;;4.72;;
6547;SDS011;3307;52.416;16.862;2023-05-07T04:26:05;7.60;;;3.47;;
6547;SDS011;3307;52.416;16.862;2023-05-07T04:28:30;4.67;;;4.23;;
6547;SDS011;3307;52.416;16.862;2023-05-07T04:30:56;3.90;;;2.80;;
6547;SDS011;3307;52.416;16.862;2023-05-07T04:33:21;7.30;;;3.63;;
6547;SDS011;3307;52.416;16.862;2023-05-07T04:35:47;5.23;;;3.80;;
6547;SDS011;3307;52.416;16.862;2023-05-07T04:38:12;4.80;;;3.83;;
6547;SDS011;3307;52.416;16.862;2023-05-07T04:40:37;4.27;;;3.63;;
6547;SDS011;3307;52.416;16.862;2023-05-07T04:43:04;4.32;;;3.88;;
6547;SDS011;3307;52.416;16.862;2023-05-07T04:45:29;8.37;;;4.37;;
6547;SDS011;3307;52.416;16.862;2023-05-07T04:47:55;6.90;;;3.97;;
6547;SDS011;3307;52.416;16.862;2023-05-07T04:50:20;6.90;;;4.57;;
6547;SDS011;3307;52.416;16.862;2023-05-07T04:52:48;5.78;;;3.58;;
6547;SDS011;3307;52.416;16.862;2023-05-07T04:55:13;3.58;;;2.72;;
6547;SDS011;3307;52.416;16.862;2023-05-07T04:57:39;5.17;;;4.07;;
6547;SDS011;3307;52.416;16.862;2023-05-07T05:00:06;6.05;;;3.40;;
6547;SDS011;3307;52.416;16.862;2023-05-07T05:02:33;13.23;;;5.40;;
6547;SDS011;3307;52.416;16.862;2023-05-07T05:05:00;4.20;;;3.50;;
6547;SDS011;3307;52.416;16.862;2023-05-07T05:07:27;5.60;;;3.90;;
6547;SDS011;3307;52.416;16.862;2023-05-07T05:09:53;6.65;;;3.92;;
6547;SDS011;3307;52.416;16.862;2023-05-07T05:12:18;6.03;;;3.40;;
6547;SDS011;3307;52.416;16.862;2023-05-07T05:14:44;4.70;;;3.80;;
6547;SDS011;3307;52.416;16.862;2023-05-07T05:17:09;5.77;;;3.63;;
6547;SDS011;3307;52.416;16.862;2023-05-07T05:19:35;4.13;;;3.70;;
6547;SDS011;3307;52.416;16.862;2023-05-07T05:22:00;4.93;;;2.97;;
6547;SDS011;3307;52.416;16.862;2023-05-07T05:24:26;5.30;;;3.07;;
6547;SDS011;3307;52.416;16.862;2023-05-07T05:26:53;4.37;;;2.80;;
6547;SDS011;3307;52.416;16.862;2023-05-07T05:29:18;3.13;;;2.83;;
6547;SDS011;3307;52.416;16.862;2023-05-07T05:31:44;8.70;;;2.80;;
6547;SDS011;3307;52.416;16.862;2023-05-07T05:34:09;2.87;;;2.10;;
6547;SDS011;3307;52.416;16.862;2023-05-07T05:36:35;2.40;;;1.77;;
6547;SDS011;3307;52.416;16.862;2023-05-07T05:39:00;5.57;;;2.73;;
6547;SDS011;3307;52.416;16.862;2023-05-07T05:41:25;3.60;;;2.07;;
6547;SDS011;3307;52.416;16.862;2023-05-07T05:43:51;4.37;;;1.83;;
6547;SDS011;3307;52.416;16.862;2023-05-07T05:46:16;3.17;;;1.90;;
6547;SDS011;3307;52.416;16.862;2023-05-07T05:48:41;3.13;;;2.07;;
6547;SDS011;3307;52.416;16.862;2023-05-07T05:51:07;2.37;;;1.73;;
6547;SDS011;3307;52.416;16.862;2023-05-07T05:53:32;3.60;;;1.97;;
6547;SDS011;3307;52.416;16.862;2023-05-07T05:55:58;3.07;;;1.77;;
6547;SDS011;3307;52.416;16.862;2023-05-07T05:58:24;2.67;;;1.75;;
6547;SDS011;3307;52.416;16.862;2023-05-07T06:00:49;1.63;;;1.43;;
6547;SDS011;3307;52.416;16.862;2023-05-07T06:03:17;2.60;;;2.10;;
6547;SDS011;3307;52.416;16.862;2023-05-07T06:05:42;3.30;;;1.87;;
6547;SDS011;3307;52.416;16.862;2023-05-07T06:08:08;2.47;;;1.83;;
6547;SDS011;3307;52.416;16.862;2023-05-07T06:10:33;1.60;;;1.40;;
6547;SDS011;3307;52.416;16.862;2023-05-07T06:12:59;2.80;;;2.10;;
6547;SDS011;3307;52.416;16.862;2023-05-07T06:15:24;2.70;;;2.03;;
6547;SDS011;3307;52.416;16.862;2023-05-07T06:17:50;1.70;;;1.60;;
6547;SDS011;3307;52.416;16.862;2023-05-07T06:20:15;1.83;;;1.73;;
6547;SDS011;3307;52.416;16.862;2023-05-07T06:22:40;2.73;;;1.53;;
6547;SDS011;3307;52.416;16.862;2023-05-07T06:25:06;4.87;;;1.90;;
6547;SDS011;3307;52.416;16.862;2023-05-07T06:27:32;1.70;;;1.10;;
6547;SDS011;3307;52.416;16.862;2023-05-07T06:29:57;1.37;;;1.27;;
6547;SDS011;3307;52.416;16.862;2023-05-07T06:32:23;1.77;;;1.67;;
6547;SDS011;3307;52.416;16.862;2023-05-07T06:34:48;1.53;;;1.40;;
6547;SDS011;3307;52.416;16.862;2023-05-07T06:37:13;2.20;;;1.93;;
6547;SDS011;3307;52.416;16.862;2023-05-07T06:39:39;2.10;;;1.60;;
6547;SDS011;3307;52.416;16.862;2023-05-07T06:42:04;2.43;;;1.40;;
6547;SDS011;3307;52.416;16.862;2023-05-07T06:44:30;2.83;;;2.30;;
6547;SDS011;3307;52.416;16.862;2023-05-07T06:46:56;1.83;;;1.73;;
6547;SDS011;3307;52.416;16.862;2023-05-07T06:49:22;3.83;;;1.80;;
6547;SDS011;3307;52.416;16.862;2023-05-07T06:51:47;1.47;;;1.23;;
6547;SDS011;3307;52.416;16.862;2023-05-07T06:54:12;3.73;;;1.67;;
6547;SDS011;3307;52.416;16.862;2023-05-07T06:56:38;0.87;;;0.77;;
6547;SDS011;3307;52.416;16.862;2023-05-07T06:59:03;2.63;;;1.50;;
6547;SDS011;3307;52.416;16.862;2023-05-07T07:01:29;1.70;;;1.50;;
6547;SDS011;3307;52.416;16.862;2023-05-07T07:03:54;2.43;;;1.60;;
6547;SDS011;3307;52.416;16.862;2023-05-07T07:06:20;2.00;;;0.93;;
6547;SDS011;3307;52.416;16.862;2023-05-07T07:08:45;2.67;;;1.27;;
6547;SDS011;3307;52.416;16.862;2023-05-07T07:11:11;1.43;;;0.90;;
6547;SDS011;3307;52.416;16.862;2023-05-07T07:13:36;1.40;;;1.13;;
6547;SDS011;3307;52.416;16.862;2023-05-07T07:16:02;1.17;;;1.07;;
6547;SDS011;3307;52.416;16.862;2023-05-07T07:18:28;2.13;;;1.30;;
6547;SDS011;3307;52.416;16.862;2023-05-07T07:20:53;4.23;;;2.37;;
6547;SDS011;3307;52.416;16.862;2023-05-07T07:23:18;1.10;;;0.70;;
6547;SDS011;3307;52.416;16.862;2023-05-07T07:25:44;0.80;;;0.67;;
6547;SDS011;3307;52.416;16.862;2023-05-07T07:28:09;1.47;;;0.90;;
6547;SDS011;3307;52.416;16.862;2023-05-07T07:30:36;1.30;;;0.90;;
6547;SDS011;3307;52.416;16.862;2023-05-07T07:33:01;1.70;;;0.87;;
6547;SDS011;3307;52.416;16.862;2023-05-07T07:35:31;1.75;;;1.33;;
6547;SDS011;3307;52.416;16.862;2023-05-07T07:37:57;1.27;;;0.93;;
6547;SDS011;3307;52.416;16.862;2023-05-07T07:40:22;1.20;;;1.10;;
6547;SDS011;3307;52.416;16.862;2023-05-07T07:42:48;1.43;;;0.90;;
6547;SDS011;3307;52.416;16.862;2023-05-07T07:45:13;1.50;;;1.00;;
6547;SDS011;3307;52.416;16.862;2023-05-07T07:47:39;1.27;;;1.07;;
6547;SDS011;3307;52.416;16.862;2023-05-07T07:50:05;1.48;;;1.00;;
6547;SDS011;3307;52.416;16.862;2023-05-07T07:52:32;1.10;;;0.80;;
6547;SDS011;3307;52.416;16.862;2023-05-07T07:54:58;1.23;;;1.00;;
6547;SDS011;3307;52.416;16.862;2023-05-07T07:57:24;1.63;;;1.20;;
6547;SDS011;3307;52.416;16.862;2023-05-07T07:59:49;1.00;;;0.80;;
6547;SDS011;3307;52.416;16.862;2023-05-07T08:02:15;1.37;;;1.27;;
6547;SDS011;3307;52.416;16.862;2023-05-07T08:04:41;1.48;;;1.25;;
6547;SDS011;3307;52.416;16.862;2023-05-07T08:07:08;2.20;;;1.20;;
6547;SDS011;3307;52.416;16.862;2023-05-07T08:09:34;1.40;;;1.30;;
6547;SDS011;3307;52.416;16.862;2023-05-07T08:12:00;0.70;;;0.60;;
6547;SDS011;3307;52.416;16.862;2023-05-07T08:14:26;1.80;;;1.50;;
6547;SDS011;3307;52.416;16.862;2023-05-07T08:16:53;2.53;;;0.90;;
6547;SDS011;3307;52.416;16.862;2023-05-07T08:19:19;2.70;;;1.37;;
6547;SDS011;3307;52.416;16.862;2023-05-07T08:21:45;1.10;;;0.80;;
6547;SDS011;3307;52.416;16.862;2023-05-07T08:24:12;1.20;;;0.80;;
6547;SDS011;3307;52.416;16.862;2023-05-07T08:26:38;2.47;;;1.53;;
6547;SDS011;3307;52.416;16.862;2023-05-07T08:29:04;1.20;;;1.00;;
6547;SDS011;3307;52.416;16.862;2023-05-07T08:31:30;2.20;;;1.00;;
6547;SDS011;3307;52.416;16.862;2023-05-07T08:33:56;1.87;;;0.97;;
6547;SDS011;3307;52.416;16.862;2023-05-07T08:36:22;3.70;;;1.03;;
6547;SDS011;3307;52.416;16.862;2023-05-07T08:38:47;1.47;;;1.20;;
6547;SDS011;3307;52.416;16.862;2023-05-07T08:41:13;1.53;;;0.90;;
6547;SDS011;3307;52.416;16.862;2023-05-07T08:43:38;1.00;;;0.90;;
6547;SDS011;3307;52.416;16.862;2023-05-07T08:46:06;1.50;;;1.00;;
6547;SDS011;3307;52.416;16.862;2023-05-07T08:48:34;1.40;;;1.00;;
6547;SDS011;3307;52.416;16.862;2023-05-07T08:50:59;1.10;;;1.00;;
6547;SDS011;3307;52.416;16.862;2023-05-07T08:53:25;2.17;;;1.20;;
6547;SDS011;3307;52.416;16.862;2023-05-07T08:55:50;1.10;;;1.00;;
6547;SDS011;3307;52.416;16.862;2023-05-07T08:58:16;1.40;;;1.07;;
6547;SDS011;3307;52.416;16.862;2023-05-07T09:00:41;1.50;;;1.23;;
6547;SDS011;3307;52.416;16.862;2023-05-07T09:03:07;1.83;;;1.30;;
6547;SDS011;3307;52.416;16.862;2023-05-07T09:05:32;1.30;;;1.10;;
6547;SDS011;3307;52.416;16.862;2023-05-07T09:08:05;1.40;;;1.10;;
6547;SDS011;3307;52.416;16.862;2023-05-07T09:10:32;1.40;;;1.30;;
6547;SDS011;3307;52.416;16.862;2023-05-07T09:12:58;4.10;;;1.40;;
6547;SDS011;3307;52.416;16.862;2023-05-07T09:15:23;1.87;;;1.60;;
6547;SDS011;3307;52.416;16.862;2023-05-07T09:17:50;1.40;;;1.30;;
6547;SDS011;3307;52.416;16.862;2023-05-07T09:20:15;2.63;;;1.63;;
6547;SDS011;3307;52.416;16.862;2023-05-07T09:22:41;2.73;;;1.63;;
6547;SDS011;3307;52.416;16.862;2023-05-07T09:25:07;2.70;;;1.30;;
6547;SDS011;3307;52.416;16.862;2023-05-07T09:27:34;1.93;;;1.40;;
6547;SDS011;3307;52.416;16.862;2023-05-07T09:30:02;1.80;;;1.23;;
6547;SDS011;3307;52.416;16.862;2023-05-07T09:32:29;2.87;;;1.50;;
6547;SDS011;3307;52.416;16.862;2023-05-07T09:34:56;2.00;;;1.90;;
6547;SDS011;3307;52.416;16.862;2023-05-07T09:37:21;2.60;;;1.47;;
6547;SDS011;3307;52.416;16.862;2023-05-07T09:39:48;1.90;;;1.70;;
6547;SDS011;3307;52.416;16.862;2023-05-07T09:42:14;1.33;;;1.23;;
6547;SDS011;3307;52.416;16.862;2023-05-07T09:44:40;1.23;;;1.13;;
6547;SDS011;3307;52.416;16.862;2023-05-07T09:47:07;2.17;;;1.30;;
6547;SDS011;3307;52.416;16.862;2023-05-07T09:49:36;2.78;;;1.30;;
6547;SDS011;3307;52.416;16.862;2023-05-07T09:52:04;5.63;;;1.77;;
6547;SDS011;3307;52.416;16.862;2023-05-07T09:54:31;1.60;;;1.50;;
6547;SDS011;3307;52.416;16.862;2023-05-07T09:56:58;1.77;;;1.27;;
6547;SDS011;3307;52.416;16.862;2023-05-07T09:59:24;1.40;;;1.30;;
6547;SDS011;3307;52.416;16.862;2023-05-07T10:01:50;1.53;;;1.40;;
6547;SDS011;3307;52.416;16.862;2023-05-07T10:04:17;1.33;;;1.20;;
6547;SDS011;3307;52.416;16.862;2023-05-07T10:06:43;2.40;;;1.50;;
6547;SDS011;3307;52.416;16.862;2023-05-07T10:09:09;1.30;;;1.10;;
6547;SDS011;3307;52.416;16.862;2023-05-07T10:11:34;1.53;;;1.20;;
6547;SDS011;3307;52.416;16.862;2023-05-07T10:14:01;1.33;;;1.00;;
6547;SDS011;3307;52.416;16.862;2023-05-07T10:16:31;1.63;;;1.53;;
6547;SDS011;3307;52.416;16.862;2023-05-07T10:19:03;7.50;;;1.73;;
6547;SDS011;3307;52.416;16.862;2023-05-07T10:21:30;1.13;;;1.00;;
6547;SDS011;3307;52.416;16.862;2023-05-07T10:26:25;1.60;;;1.40;;
6547;SDS011;3307;52.416;16.862;2023-05-07T10:28:53;1.35;;;1.25;;
6547;SDS011;3307;52.416;16.862;2023-05-07T10:34:12;3.70;;;1.30;;
6547;SDS011;3307;52.416;16.862;2023-05-07T10:36:40;1.63;;;1.20;;
6547;SDS011;3307;52.416;16.862;2023-05-07T10:39:07;1.60;;;1.50;;
6547;SDS011;3307;52.416;16.862;2023-05-07T10:41:33;1.60;;;1.50;;
6547;SDS011;3307;52.416;16.862;2023-05-07T10:43:58;2.23;;;1.87;;
6547;SDS011;3307;52.416;16.862;2023-05-07T10:46:26;1.40;;;1.10;;
6547;SDS011;3307;52.416;16.862;2023-05-07T10:51:27;1.70;;;1.37;;
6547;SDS011;3307;52.416;16.862;2023-05-07T10:56:48;1.83;;;1.30;;
6547;SDS011;3307;52.416;16.862;2023-05-07T11:01:56;1.87;;;1.10;;
6547;SDS011;3307;52.416;16.862;2023-05-07T11:04:28;1.60;;;1.00;;
6547;SDS011;3307;52.416;16.862;2023-05-07T11:15:12;1.33;;;0.80;;
6547;SDS011;3307;52.416;16.862;2023-05-07T11:17:53;1.37;;;0.80;;
6547;SDS011;3307;52.416;16.862;2023-05-07T11:20:20;1.40;;;1.00;;
6547;SDS011;3307;52.416;16.862;2023-05-07T11:22:46;1.25;;;1.05;;
6547;SDS011;3307;52.416;16.862;2023-05-07T11:25:17;1.90;;;1.07;;
6547;SDS011;3307;52.416;16.862;2023-05-07T11:27:43;1.40;;;1.00;;
6547;SDS011;3307;52.416;16.862;2023-05-07T11:30:09;1.00;;;0.83;;
6547;SDS011;3307;52.416;16.862;2023-05-07T11:32:35;2.77;;;1.20;;
6547;SDS011;3307;52.416;16.862;2023-05-07T11:35:01;1.93;;;0.97;;
6547;SDS011;3307;52.416;16.862;2023-05-07T11:37:27;1.10;;;1.00;;
6547;SDS011;3307;52.416;16.862;2023-05-07T11:40:04;1.77;;;1.20;;
6547;SDS011;3307;52.416;16.862;2023-05-07T11:42:31;1.63;;;1.00;;
6547;SDS011;3307;52.416;16.862;2023-05-07T11:44:58;1.43;;;0.90;;
6547;SDS011;3307;52.416;16.862;2023-05-07T11:47:24;2.10;;;1.00;;
6547;SDS011;3307;52.416;16.862;2023-05-07T11:49:53;1.67;;;1.30;;
6547;SDS011;3307;52.416;16.862;2023-05-07T11:52:20;1.20;;;1.10;;
6547;SDS011;3307;52.416;16.862;2023-05-07T11:57:15;1.00;;;0.70;;
6547;SDS011;3307;52.416;16.862;2023-05-07T11:59:40;1.63;;;1.20;;
6547;SDS011;3307;52.416;16.862;2023-05-07T12:02:06;2.13;;;1.37;;
6547;SDS011;3307;52.416;16.862;2023-05-07T12:04:32;1.40;;;1.30;;
6547;SDS011;3307;52.416;16.862;2023-05-07T12:06:58;1.20;;;1.10;;
6547;SDS011;3307;52.416;16.862;2023-05-07T12:09:23;1.73;;;1.03;;
6547;SDS011;3307;52.416;16.862;2023-05-07T12:11:48;1.73;;;1.37;;
6547;SDS011;3307;52.416;16.862;2023-05-07T12:14:14;1.30;;;0.90;;
6547;SDS011;3307;52.416;16.862;2023-05-07T12:16:42;1.30;;;1.10;;
6547;SDS011;3307;52.416;16.862;2023-05-07T12:19:08;2.90;;;1.60;;
6547;SDS011;3307;52.416;16.862;2023-05-07T12:21:37;1.37;;;1.07;;
6547;SDS011;3307;52.416;16.862;2023-05-07T12:24:03;4.97;;;1.35;;
6547;SDS011;3307;52.416;16.862;2023-05-07T12:26:29;1.47;;;1.20;;
6547;SDS011;3307;52.416;16.862;2023-05-07T12:28:54;2.57;;;1.10;;
6547;SDS011;3307;52.416;16.862;2023-05-07T12:31:19;1.43;;;1.30;;
6547;SDS011;3307;52.416;16.862;2023-05-07T12:33:45;1.90;;;1.30;;
6547;SDS011;3307;52.416;16.862;2023-05-07T12:36:12;1.67;;;1.33;;
6547;SDS011;3307;52.416;16.862;2023-05-07T12:38:38;1.40;;;0.97;;
6547;SDS011;3307;52.416;16.862;2023-05-07T12:41:06;1.70;;;1.30;;
6547;SDS011;3307;52.416;16.862;2023-05-07T12:43:32;1.60;;;1.37;;
6547;SDS011;3307;52.416;16.862;2023-05-07T12:46:00;4.30;;;1.47;;
6547;SDS011;3307;52.416;16.862;2023-05-07T12:48:27;1.63;;;1.00;;
6547;SDS011;3307;52.416;16.862;2023-05-07T12:50:53;1.87;;;1.30;;
6547;SDS011;3307;52.416;16.862;2023-05-07T12:53:20;1.20;;;1.07;;
6547;SDS011;3307;52.416;16.862;2023-05-07T12:55:50;1.35;;;1.23;;
6547;SDS011;3307;52.416;16.862;2023-05-07T12:58:21;1.73;;;1.40;;
6547;SDS011;3307;52.416;16.862;2023-05-07T13:00:50;1.73;;;1.08;;
6547;SDS011;3307;52.416;16.862;2023-05-07T13:05:48;1.50;;;1.20;;
6547;SDS011;3307;52.416;16.862;2023-05-07T13:08:22;1.40;;;1.30;;
6547;SDS011;3307;52.416;16.862;2023-05-07T13:10:56;2.20;;;1.37;;
6547;SDS011;3307;52.416;16.862;2023-05-07T13:13:22;1.10;;;1.00;;
6547;SDS011;3307;52.416;16.862;2023-05-07T13:15:48;1.33;;;1.20;;
6547;SDS011;3307;52.416;16.862;2023-05-07T13:18:13;2.00;;;1.13;;
6547;SDS011;3307;52.416;16.862;2023-05-07T13:20:39;1.17;;;1.07;;
6547;SDS011;3307;52.416;16.862;2023-05-07T13:23:04;1.40;;;1.20;;
6547;SDS011;3307;52.416;16.862;2023-05-07T13:25:30;1.23;;;1.13;;
6547;SDS011;3307;52.416;16.862;2023-05-07T13:27:59;2.25;;;1.90;;
6547;SDS011;3307;52.416;16.862;2023-05-07T13:30:24;2.03;;;1.70;;
6547;SDS011;3307;52.416;16.862;2023-05-07T13:32:50;1.83;;;1.30;;
6547;SDS011;3307;52.416;16.862;2023-05-07T13:35:17;1.63;;;1.37;;
6547;SDS011;3307;52.416;16.862;2023-05-07T13:37:42;1.30;;;1.20;;
6547;SDS011;3307;52.416;16.862;2023-05-07T13:40:08;1.20;;;1.10;;
6547;SDS011;3307;52.416;16.862;2023-05-07T13:42:33;2.60;;;1.10;;
6547;SDS011;3307;52.416;16.862;2023-05-07T13:44:59;1.40;;;1.17;;
6547;SDS011;3307;52.416;16.862;2023-05-07T13:47:24;1.50;;;1.23;;
6547;SDS011;3307;52.416;16.862;2023-05-07T13:49:49;1.20;;;0.93;;
6547;SDS011;3307;52.416;16.862;2023-05-07T13:52:15;3.93;;;1.20;;
6547;SDS011;3307;52.416;16.862;2023-05-07T13:54:41;1.50;;;1.40;;
6547;SDS011;3307;52.416;16.862;2023-05-07T13:57:07;1.20;;;1.10;;
6547;SDS011;3307;52.416;16.862;2023-05-07T13:59:32;1.47;;;1.37;;
6547;SDS011;3307;52.416;16.862;2023-05-07T14:01:58;1.80;;;1.50;;
6547;SDS011;3307;52.416;16.862;2023-05-07T14:04:23;1.60;;;1.27;;
6547;SDS011;3307;52.416;16.862;2023-05-07T14:06:49;1.83;;;1.67;;
6547;SDS011;3307;52.416;16.862;2023-05-07T14:09:14;1.43;;;1.10;;
6547;SDS011;3307;52.416;16.862;2023-05-07T14:11:40;1.50;;;1.30;;
6547;SDS011;3307;52.416;16.862;2023-05-07T14:14:06;2.10;;;1.10;;
6547;SDS011;3307;52.416;16.862;2023-05-07T14:16:31;1.40;;;1.30;;
6547;SDS011;3307;52.416;16.862;2023-05-07T14:18:56;1.80;;;1.30;;
6547;SDS011;3307;52.416;16.862;2023-05-07T14:21:22;1.70;;;1.47;;
6547;SDS011;3307;52.416;16.862;2023-05-07T14:23:47;2.20;;;1.43;;
6547;SDS011;3307;52.416;16.862;2023-05-07T14:26:13;3.03;;;1.50;;
6547;SDS011;3307;52.416;16.862;2023-05-07T14:28:38;1.73;;;1.00;;
6547;SDS011;3307;52.416;16.862;2023-05-07T14:31:04;1.40;;;1.30;;
6547;SDS011;3307;52.416;16.862;2023-05-07T14:33:31;1.17;;;1.00;;
6547;SDS011;3307;52.416;16.862;2023-05-07T14:35:56;1.40;;;1.30;;
6547;SDS011;3307;52.416;16.862;2023-05-07T14:38:22;1.70;;;1.20;;
6547;SDS011;3307;52.416;16.862;2023-05-07T14:40:47;1.87;;;1.30;;
6547;SDS011;3307;52.416;16.862;2023-05-07T14:43:13;1.47;;;1.37;;
6547;SDS011;3307;52.416;16.862;2023-05-07T14:45:38;2.87;;;1.60;;
6547;SDS011;3307;52.416;16.862;2023-05-07T14:48:04;2.50;;;1.90;;
6547;SDS011;3307;52.416;16.862;2023-05-07T14:50:30;5.90;;;1.30;;
6547;SDS011;3307;52.416;16.862;2023-05-07T14:52:55;1.30;;;1.20;;
6547;SDS011;3307;52.416;16.862;2023-05-07T14:55:20;1.57;;;1.40;;
6547;SDS011;3307;52.416;16.862;2023-05-07T14:57:46;2.60;;;1.70;;
6547;SDS011;3307;52.416;16.862;2023-05-07T15:00:11;1.97;;;1.77;;
6547;SDS011;3307;52.416;16.862;2023-05-07T15:02:37;1.53;;;1.17;;
6547;SDS011;3307;52.416;16.862;2023-05-07T15:05:03;1.30;;;1.20;;
6547;SDS011;3307;52.416;16.862;2023-05-07T15:07:29;2.73;;;2.00;;
6547;SDS011;3307;52.416;16.862;2023-05-07T15:09:54;1.60;;;1.47;;
6547;SDS011;3307;52.416;16.862;2023-05-07T15:12:20;2.53;;;1.20;;
6547;SDS011;3307;52.416;16.862;2023-05-07T15:14:45;1.50;;;1.40;;
6547;SDS011;3307;52.416;16.862;2023-05-07T15:17:11;2.67;;;1.50;;
6547;SDS011;3307;52.416;16.862;2023-05-07T15:19:36;1.37;;;1.27;;